Time;durP1;ratioP1;P1;durP2;ratioP2;P2;SDS_P1;SDS_P2;PMS_P1;PMS_P2;Temp;Humidity;BMP_temperature;BMP_pressure;BME280_temperature;BME280_humidity;BME280_pressure;Samples;Min_cycle;Max_cycle;Signal;HPM_P1;HPM_P2
2022/04/04 00:01:52;;;;;;;8.93;5.05;;;2.50;99.90;;;;;;5012864;28;20034;-49
2022/04/04 00:04:18;;;;;;;9.93;4.70;;;2.50;99.90;;;;;;5012262;28;20068;-45
2022/04/04 00:06:44;;;;;;;9.18;4.47;;;2.50;99.90;;;;;;5012435;28;20434;-49
2022/04/04 00:09:10;;;;;;;8.13;4.75;;;2.40;99.90;;;;;;5012296;28;20042;-48
2022/04/04 00:11:36;;;;;;;11.48;5.30;;;2.50;99.90;;;;;;5012613;28;20103;-47
2022/04/04 00:14:03;;;;;;;10.32;4.32;;;2.40;99.90;;;;;;5012319;28;20095;-48
2022/04/04 00:16:29;;;;;;;9.68;5.10;;;2.40;99.90;;;;;;5012585;28;20045;-46
2022/04/04 00:18:54;;;;;;;8.20;5.00;;;2.40;99.90;;;;;;5012010;28;20052;-48
2022/04/04 00:21:20;;;;;;;8.30;4.40;;;2.50;99.90;;;;;;5012439;28;20038;-47
2022/04/04 00:23:46;;;;;;;9.15;4.30;;;2.60;99.90;;;;;;5011633;28;20393;-50
2022/04/04 00:26:12;;;;;;;8.30;4.72;;;2.60;99.90;;;;;;5012289;28;20507;-48
2022/04/04 00:28:38;;;;;;;10.18;5.03;;;2.60;99.90;;;;;;5012206;28;20117;-47
2022/04/04 00:31:04;;;;;;;8.98;5.20;;;2.70;99.90;;;;;;5012250;28;20030;-49
2022/04/04 00:33:29;;;;;;;9.48;5.32;;;2.80;99.90;;;;;;4993758;28;20114;-48
2022/04/04 00:35:55;;;;;;;8.90;5.13;;;2.70;99.90;;;;;;5011359;28;20042;-46
2022/04/04 00:38:22;;;;;;;9.93;5.72;;;2.80;99.90;;;;;;5011618;28;20048;-46
2022/04/04 00:40:48;;;;;;;9.88;5.50;;;2.90;99.90;;;;;;5009651;28;20116;-47
2022/04/04 00:43:14;;;;;;;11.23;6.40;;;3.00;99.90;;;;;;5011622;28;20138;-50
2022/04/04 00:45:44;;;;;;;11.90;7.55;;;2.90;99.90;;;;;;5011709;28;20129;-45
2022/04/04 00:48:10;;;;;;;15.13;7.40;;;2.80;99.90;;;;;;5012058;28;20362;-46
2022/04/04 00:50:36;;;;;;;11.40;7.20;;;2.90;99.90;;;;;;5011558;28;20117;-48
2022/04/04 00:53:02;;;;;;;12.20;8.15;;;2.90;99.90;;;;;;5011536;28;20040;-49
2022/04/04 00:55:28;;;;;;;14.02;8.60;;;3.00;99.90;;;;;;5011730;28;20089;-48
2022/04/04 00:57:55;;;;;;;14.35;9.25;;;3.00;99.90;;;;;;5011721;28;20125;-50
2022/04/04 01:00:21;;;;;;;15.40;9.70;;;3.00;99.90;;;;;;5011500;28;20061;-46
2022/04/04 01:02:46;;;;;;;15.85;9.65;;;3.00;99.90;;;;;;5011299;28;20124;-49
2022/04/04 01:05:12;;;;;;;12.73;9.75;;;3.00;99.90;;;;;;5011425;28;20481;-46
2022/04/04 01:07:39;;;;;;;14.70;9.40;;;3.10;99.90;;;;;;5011471;28;20073;-47
2022/04/04 01:10:08;;;;;;;14.35;8.93;;;3.20;99.90;;;;;;5011284;28;20034;-47
2022/04/04 01:12:34;;;;;;;16.00;9.15;;;3.10;99.90;;;;;;5011539;28;20040;-48
2022/04/04 01:15:00;;;;;;;15.95;9.18;;;3.10;99.90;;;;;;5011058;28;20038;-47
2022/04/04 01:17:27;;;;;;;12.98;9.30;;;3.20;99.90;;;;;;5011303;28;20057;-48
2022/04/04 01:19:53;;;;;;;13.35;9.30;;;3.20;99.90;;;;;;5011571;28;20503;-46
2022/04/04 01:22:19;;;;;;;14.65;8.85;;;3.20;99.90;;;;;;4993429;28;20497;-50
2022/04/04 01:24:45;;;;;;;11.55;8.68;;;3.10;99.90;;;;;;5010632;28;20507;-46
2022/04/04 01:27:11;;;;;;;14.70;8.43;;;3.10;99.90;;;;;;4991612;28;20397;-50
2022/04/04 01:29:38;;;;;;;14.73;8.95;;;3.20;99.90;;;;;;5010883;28;20042;-44
2022/04/04 01:32:05;;;;;;;12.82;8.68;;;3.10;99.90;;;;;;5010644;28;20037;-47
2022/04/04 01:34:31;;;;;;;14.95;8.70;;;3.20;99.90;;;;;;5011116;28;20038;-45
2022/04/04 01:36:58;;;;;;;12.88;8.10;;;3.20;99.90;;;;;;4992860;28;20068;-47
2022/04/04 01:39:24;;;;;;;12.40;8.10;;;3.20;99.90;;;;;;5011005;28;20038;-45
2022/04/04 01:41:50;;;;;;;13.77;8.38;;;3.20;99.90;;;;;;5010762;28;20046;-49
2022/04/04 01:44:15;;;;;;;15.23;8.80;;;3.20;99.90;;;;;;5010773;28;20140;-46
2022/04/04 01:46:41;;;;;;;14.88;8.68;;;3.10;99.90;;;;;;5010796;28;20128;-45
2022/04/04 01:49:07;;;;;;;16.58;8.95;;;3.20;99.90;;;;;;5010552;28;20045;-50
2022/04/04 01:51:35;;;;;;;13.18;8.68;;;3.20;99.90;;;;;;5010628;28;20547;-45
2022/04/04 01:54:01;;;;;;;13.80;8.98;;;3.10;99.90;;;;;;5010655;28;20068;-49
2022/04/04 01:56:27;;;;;;;17.98;9.02;;;3.10;99.90;;;;;;5010642;28;20046;-46
2022/04/04 01:58:54;;;;;;;17.02;10.38;;;3.20;99.90;;;;;;5010564;28;20056;-47
2022/04/04 02:01:22;;;;;;;15.15;9.95;;;3.10;99.90;;;;;;5010426;28;20056;-45
2022/04/04 02:03:49;;;;;;;14.98;9.68;;;3.20;99.90;;;;;;5009851;28;20037;-48
2022/04/04 02:06:15;;;;;;;18.13;10.55;;;3.10;99.90;;;;;;5010699;28;20401;-48
2022/04/04 02:08:44;;;;;;;17.27;10.18;;;3.30;99.90;;;;;;5010126;28;20042;-46
2022/04/04 02:11:11;;;;;;;18.70;11.05;;;3.30;99.90;;;;;;5007991;28;20061;-49
2022/04/04 02:13:37;;;;;;;16.98;10.75;;;3.30;99.90;;;;;;5010497;28;20038;-46
2022/04/04 02:16:04;;;;;;;21.25;11.35;;;3.40;99.90;;;;;;5010608;28;20040;-45
2022/04/04 02:18:32;;;;;;;18.10;11.98;;;3.30;99.90;;;;;;5010043;28;20048;-45
2022/04/04 02:20:58;;;;;;;17.45;11.70;;;3.40;99.90;;;;;;5010575;28;20121;-46
2022/04/04 02:23:24;;;;;;;19.67;11.07;;;3.50;99.90;;;;;;5010061;28;20050;-48
2022/04/04 02:25:53;;;;;;;22.20;11.75;;;3.60;99.90;;;;;;5010282;28;20542;-49
2022/04/04 02:28:19;;;;;;;20.23;11.35;;;3.60;99.90;;;;;;5010118;28;20041;-45
2022/04/04 02:30:49;;;;;;;19.50;11.55;;;3.60;99.90;;;;;;5010115;28;20038;-46
2022/04/04 02:33:16;;;;;;;19.85;11.35;;;3.70;99.90;;;;;;5009055;28;20041;-50
2022/04/04 02:35:42;;;;;;;19.67;11.18;;;3.60;99.90;;;;;;5009185;28;20050;-49
2022/04/04 02:38:08;;;;;;;20.27;12.43;;;3.60;99.90;;;;;;5010490;28;20026;-50
2022/04/04 02:40:34;;;;;;;20.17;12.18;;;3.60;99.90;;;;;;5010114;28;20041;-45
2022/04/04 02:43:00;;;;;;;21.40;12.02;;;3.70;99.90;;;;;;5009878;28;20062;-51
2022/04/04 02:45:26;;;;;;;20.17;11.77;;;3.60;99.90;;;;;;5010151;28;20132;-48
2022/04/04 02:47:52;;;;;;;21.00;11.70;;;3.80;99.90;;;;;;5010137;28;20429;-47
2022/04/04 02:50:18;;;;;;;22.08;12.98;;;3.70;99.90;;;;;;5010106;28;20050;-45
2022/04/04 02:52:44;;;;;;;21.52;12.15;;;3.70;99.90;;;;;;5008896;28;20038;-49
2022/04/04 02:57:55;;;;;;;20.00;12.52;;;3.80;99.90;;;;;;5010807;28;20049;-48
2022/04/04 03:00:23;;;;;;;21.38;12.90;;;3.80;99.90;;;;;;5013325;28;20037;-49
2022/04/04 03:02:50;;;;;;;19.25;11.15;;;3.70;99.90;;;;;;5013704;28;20038;-49
2022/04/04 03:05:15;;;;;;;19.05;12.40;;;3.80;99.90;;;;;;5013684;28;20088;-50
2022/04/04 03:07:42;;;;;;;20.38;12.05;;;3.80;99.90;;;;;;5012304;28;20504;-49
2022/04/04 03:10:08;;;;;;;20.75;11.18;;;3.90;99.90;;;;;;5013250;28;20057;-48
2022/04/04 03:12:40;;;;;;;20.73;11.93;;;3.80;99.90;;;;;;5013628;28;20053;-46
2022/04/04 03:15:08;;;;;;;25.30;12.30;;;3.90;99.90;;;;;;5013670;28;20177;-46
2022/04/04 03:17:33;;;;;;;16.67;11.77;;;3.90;99.90;;;;;;5013472;28;20120;-48
2022/04/04 03:19:59;;;;;;;19.75;12.10;;;3.80;99.90;;;;;;5013445;28;20168;-47
2022/04/04 03:22:26;;;;;;;19.60;11.65;;;3.80;99.90;;;;;;4995642;28;20049;-48
2022/04/04 03:24:52;;;;;;;17.90;11.23;;;4.00;99.90;;;;;;5012947;28;20103;-46
2022/04/04 03:27:18;;;;;;;21.30;12.30;;;4.00;99.90;;;;;;5013619;28;20504;-49
2022/04/04 03:29:44;;;;;;;20.63;11.95;;;3.90;99.90;;;;;;5013465;28;20034;-46
2022/04/04 03:32:10;;;;;;;22.20;11.02;;;4.00;99.90;;;;;;5012708;28;20129;-48
2022/04/04 03:34:36;;;;;;;19.73;11.95;;;3.90;99.90;;;;;;5013507;28;20124;-51
2022/04/04 03:37:02;;;;;;;20.83;11.98;;;4.00;99.90;;;;;;5013056;28;20512;-45
2022/04/04 03:39:28;;;;;;;20.38;12.07;;;4.10;99.90;;;;;;5005369;28;20061;-49
2022/04/04 03:41:54;;;;;;;18.15;11.23;;;4.00;99.90;;;;;;5011521;28;20082;-47
2022/04/04 03:44:20;;;;;;;20.08;11.70;;;4.10;99.90;;;;;;5013150;28;20041;-48
2022/04/04 03:46:46;;;;;;;16.50;11.00;;;4.00;99.90;;;;;;5012491;28;20038;-47
2022/04/04 03:49:12;;;;;;;21.23;11.70;;;4.10;99.90;;;;;;5012949;28;20040;-48
2022/04/04 03:51:37;;;;;;;19.05;11.45;;;4.20;99.90;;;;;;5013066;28;20045;-46
2022/04/04 03:54:03;;;;;;;17.63;12.23;;;4.20;99.90;;;;;;5012676;28;20038;-48
2022/04/04 03:56:29;;;;;;;15.43;10.45;;;4.10;99.90;;;;;;5012998;28;20045;-49
2022/04/04 03:58:54;;;;;;;19.70;11.27;;;4.10;99.90;;;;;;5012273;28;20038;-48
2022/04/04 04:01:22;;;;;;;18.45;11.20;;;4.10;99.90;;;;;;5012595;28;20042;-47
2022/04/04 04:03:48;;;;;;;18.77;11.23;;;4.20;99.90;;;;;;5012283;28;20381;-47
2022/04/04 04:06:16;;;;;;;20.40;12.10;;;4.20;99.90;;;;;;5012695;28;20042;-49
2022/04/04 04:08:46;;;;;;;19.67;12.05;;;4.20;99.90;;;;;;4993854;28;20046;-48
2022/04/04 04:11:13;;;;;;;18.58;11.35;;;4.30;99.90;;;;;;5012309;28;20038;-47
2022/04/04 04:13:41;;;;;;;17.63;11.77;;;4.30;99.90;;;;;;5012743;28;20045;-47
2022/04/04 04:16:09;;;;;;;19.42;11.50;;;4.30;99.90;;;;;;4998387;28;20052;-47
2022/04/04 04:18:36;;;;;;;18.60;11.68;;;4.40;99.90;;;;;;5012310;28;20049;-46
2022/04/04 04:21:02;;;;;;;16.98;11.27;;;4.40;99.90;;;;;;5011901;28;20049;-45
2022/04/04 04:23:28;;;;;;;18.85;11.02;;;4.40;99.90;;;;;;5012115;28;20150;-50
2022/04/04 04:25:54;;;;;;;18.15;11.55;;;4.40;99.90;;;;;;5009467;28;20200;-45
2022/04/04 04:28:19;;;;;;;18.60;12.02;;;4.50;99.90;;;;;;5012117;28;20053;-48
2022/04/04 04:30:45;;;;;;;21.52;12.70;;;4.40;99.90;;;;;;5010498;28;20072;-48
2022/04/04 04:33:11;;;;;;;18.63;12.32;;;4.50;99.90;;;;;;5011430;28;20044;-47
2022/04/04 04:35:37;;;;;;;23.77;12.55;;;4.50;99.90;;;;;;5011472;28;20127;-48
2022/04/04 04:38:03;;;;;;;22.38;12.55;;;4.50;99.90;;;;;;5012033;28;20037;-45
2022/04/04 04:40:29;;;;;;;18.05;12.13;;;4.50;99.90;;;;;;5012009;28;20072;-47
2022/04/04 04:42:55;;;;;;;18.80;12.18;;;4.40;99.90;;;;;;5011390;28;20049;-48
2022/04/04 04:45:21;;;;;;;18.65;12.20;;;4.50;99.90;;;;;;5009392;28;20044;-49
2022/04/04 04:47:48;;;;;;;19.88;12.77;;;4.50;99.90;;;;;;4993959;28;20120;-48
2022/04/04 04:50:16;;;;;;;22.60;13.25;;;4.40;99.90;;;;;;5011513;28;20068;-48
2022/04/04 04:52:44;;;;;;;19.75;13.25;;;4.60;99.90;;;;;;5010967;28;20049;-46
2022/04/04 04:55:10;;;;;;;21.38;13.93;;;4.50;99.90;;;;;;4993971;28;20084;-49
2022/04/04 04:57:37;;;;;;;21.88;12.75;;;4.50;99.90;;;;;;5011707;28;20092;-46
2022/04/04 05:00:05;;;;;;;20.98;12.77;;;4.50;99.90;;;;;;5011471;28;20034;-48
2022/04/04 05:02:31;;;;;;;18.35;12.10;;;4.50;99.90;;;;;;5009545;28;20046;-45
2022/04/04 05:04:57;;;;;;;19.70;12.07;;;4.60;99.90;;;;;;5011321;28;20378;-46
2022/04/04 05:07:23;;;;;;;18.80;11.25;;;4.50;99.90;;;;;;5011362;28;20038;-48
2022/04/04 05:09:49;;;;;;;20.88;11.98;;;4.60;99.90;;;;;;5010936;28;20042;-48
2022/04/04 05:12:14;;;;;;;21.50;12.18;;;4.70;99.90;;;;;;5010128;28;20041;-46
2022/04/04 05:14:40;;;;;;;17.75;11.60;;;4.60;99.90;;;;;;5011042;28;20041;-48
2022/04/04 05:17:06;;;;;;;19.35;11.82;;;4.60;99.90;;;;;;5011419;28;20045;-51
2022/04/04 05:19:32;;;;;;;18.33;11.43;;;4.70;99.90;;;;;;5010981;28;20030;-47
2022/04/04 05:21:57;;;;;;;17.42;10.93;;;4.70;99.90;;;;;;5010813;28;20065;-46
2022/04/04 05:24:23;;;;;;;15.40;11.02;;;4.70;99.90;;;;;;5010930;28;20164;-48
2022/04/04 05:26:49;;;;;;;17.38;10.55;;;4.70;99.90;;;;;;5008783;28;20049;-45
2022/04/04 05:29:17;;;;;;;19.40;10.30;;;4.70;99.90;;;;;;5010662;28;20038;-47
2022/04/04 05:31:45;;;;;;;14.90;9.73;;;4.70;99.90;;;;;;5010974;28;20049;-47
2022/04/04 05:34:11;;;;;;;18.58;10.70;;;4.70;99.90;;;;;;4992095;28;20105;-49
2022/04/04 05:36:37;;;;;;;16.92;10.07;;;4.80;99.90;;;;;;4991581;28;20038;-46
2022/04/04 05:39:05;;;;;;;14.65;9.30;;;4.80;99.90;;;;;;5010985;28;20111;-49
2022/04/04 05:41:31;;;;;;;18.35;11.20;;;4.80;99.90;;;;;;5011006;28;20148;-48
2022/04/04 05:43:57;;;;;;;16.95;9.48;;;4.80;99.90;;;;;;5011190;28;20046;-45
2022/04/04 05:46:23;;;;;;;18.20;11.02;;;4.80;99.90;;;;;;5010854;28;20046;-46
2022/04/04 05:48:49;;;;;;;16.48;9.70;;;4.90;99.90;;;;;;5010201;28;20108;-48
2022/04/04 05:51:16;;;;;;;15.73;9.40;;;4.80;99.90;;;;;;5009279;28;20030;-47
2022/04/04 05:53:43;;;;;;;13.65;9.70;;;4.80;99.90;;;;;;5010115;28;20408;-47
2022/04/04 05:56:09;;;;;;;16.23;9.88;;;4.90;99.90;;;;;;5009035;28;20038;-46
2022/04/04 05:58:36;;;;;;;16.50;10.00;;;4.80;99.90;;;;;;5010845;28;20394;-48
2022/04/04 06:01:02;;;;;;;16.05;9.77;;;4.80;99.90;;;;;;4998099;28;20584;-49
2022/04/04 06:03:28;;;;;;;17.45;10.13;;;5.00;99.90;;;;;;4997624;28;20117;-46
2022/04/04 06:05:54;;;;;;;17.00;9.52;;;4.80;99.90;;;;;;5001558;28;20125;-44
2022/04/04 06:08:20;;;;;;;16.30;9.52;;;4.90;99.90;;;;;;5001372;28;20041;-48
2022/04/04 06:10:46;;;;;;;15.23;9.55;;;4.80;99.90;;;;;;4983475;28;20425;-46
2022/04/04 06:13:19;;;;;;;17.75;10.25;;;4.90;99.90;;;;;;5000372;28;20034;-46
2022/04/04 06:15:46;;;;;;;16.88;9.93;;;4.90;99.90;;;;;;5000497;28;20045;-46
2022/04/04 06:18:13;;;;;;;17.42;10.07;;;4.90;99.90;;;;;;5000056;28;20408;-47
2022/04/04 06:20:39;;;;;;;19.98;10.30;;;4.80;99.90;;;;;;5001374;28;20030;-48
2022/04/04 06:23:06;;;;;;;16.80;10.60;;;4.80;99.90;;;;;;5002261;28;20030;-47
2022/04/04 06:25:32;;;;;;;14.45;9.98;;;4.80;99.90;;;;;;5001680;28;20133;-48
2022/04/04 06:28:00;;;;;;;17.67;10.45;;;4.90;99.90;;;;;;5000006;28;20120;-45
2022/04/04 06:30:27;;;;;;;16.95;10.35;;;4.80;99.90;;;;;;5000643;28;20287;-47
2022/04/04 06:32:53;;;;;;;17.45;10.65;;;4.70;99.90;;;;;;5001571;28;20431;-46
2022/04/04 06:35:19;;;;;;;19.80;10.77;;;4.80;99.90;;;;;;5003060;28;20049;-46
2022/04/04 06:37:47;;;;;;;18.50;10.60;;;4.70;99.90;;;;;;5009521;28;20045;-46
2022/04/04 06:40:14;;;;;;;19.00;10.75;;;4.70;99.90;;;;;;5000176;28;20152;-44
2022/04/04 06:42:42;;;;;;;17.55;11.20;;;4.80;99.90;;;;;;5002571;28;20057;-51
2022/04/04 06:45:09;;;;;;;17.50;10.88;;;4.80;99.90;;;;;;5005177;28;20046;-45
2022/04/04 06:47:36;;;;;;;19.38;11.25;;;4.80;99.90;;;;;;5000276;28;20053;-45
2022/04/04 06:50:02;;;;;;;19.13;11.38;;;4.70;99.90;;;;;;4997744;28;20133;-45
2022/04/04 06:52:32;;;;;;;19.02;11.32;;;4.90;99.90;;;;;;5005282;28;20408;-45
2022/04/04 06:54:58;;;;;;;21.40;12.13;;;4.90;99.90;;;;;;5004733;28;20393;-51
2022/04/04 06:57:23;;;;;;;16.27;10.90;;;4.90;99.90;;;;;;5001924;28;20046;-46
2022/04/04 06:59:50;;;;;;;20.33;11.50;;;4.90;99.90;;;;;;5002952;28;20034;-46
2022/04/04 07:02:15;;;;;;;20.20;12.05;;;5.00;99.90;;;;;;5002734;28;20494;-45
2022/04/04 07:04:42;;;;;;;16.52;11.65;;;5.00;99.90;;;;;;5004384;28;20033;-44
2022/04/04 07:07:08;;;;;;;19.88;12.50;;;4.90;99.90;;;;;;4995609;28;20034;-47
2022/04/04 07:09:35;;;;;;;22.23;13.07;;;4.90;99.90;;;;;;4997558;28;20045;-45
2022/04/04 07:12:02;;;;;;;22.42;13.45;;;4.90;99.90;;;;;;5004930;28;20157;-45
2022/04/04 07:14:28;;;;;;;20.52;13.45;;;5.00;99.90;;;;;;5003054;28;20034;-47
2022/04/04 07:16:55;;;;;;;23.58;14.30;;;4.80;99.90;;;;;;4987774;28;20125;-44
2022/04/04 07:19:22;;;;;;;24.92;14.27;;;4.80;99.90;;;;;;5004562;28;20030;-47
2022/04/04 07:21:52;;;;;;;25.85;15.07;;;5.00;99.90;;;;;;5003694;28;20037;-45
2022/04/04 07:24:21;;;;;;;25.92;16.33;;;4.90;99.90;;;;;;5002828;28;20073;-48
2022/04/04 07:26:50;;;;;;;29.58;15.90;;;4.90;99.90;;;;;;5003709;28;20506;-44
2022/04/04 07:29:16;;;;;;;28.70;16.13;;;4.90;99.90;;;;;;5001011;28;20045;-49
2022/04/04 07:31:42;;;;;;;28.10;16.73;;;5.10;99.90;;;;;;4996717;28;20046;-46
2022/04/04 07:34:10;;;;;;;24.58;15.95;;;4.90;99.90;;;;;;5000983;28;20863;-45
2022/04/04 07:36:37;;;;;;;25.73;16.15;;;5.10;99.90;;;;;;5003237;28;20041;-47
2022/04/04 07:39:04;;;;;;;24.20;16.90;;;5.00;99.90;;;;;;4999728;28;20120;-45
2022/04/04 07:41:30;;;;;;;26.23;17.38;;;5.00;99.90;;;;;;5003111;28;20152;-45
2022/04/04 07:43:56;;;;;;;26.35;16.50;;;5.20;99.90;;;;;;5003738;28;20433;-45
2022/04/04 07:46:21;;;;;;;26.27;16.80;;;4.60;99.90;;;;;;4985564;28;20046;-47
2022/04/04 07:48:47;;;;;;;23.58;16.80;;;5.10;99.90;;;;;;5002999;28;20125;-47
2022/04/04 07:51:13;;;;;;;22.40;16.13;;;5.10;99.90;;;;;;5004119;28;20037;-46
2022/04/04 07:53:39;;;;;;;26.73;17.70;;;5.10;99.90;;;;;;5002946;28;20034;-45
2022/04/04 07:56:04;;;;;;;23.92;15.88;;;5.20;99.90;;;;;;5001254;28;20042;-45
2022/04/04 07:58:30;;;;;;;28.08;17.75;;;5.10;99.90;;;;;;5003016;28;20092;-44
2022/04/04 08:00:56;;;;;;;21.38;13.52;;;5.00;99.90;;;;;;5003368;28;20042;-45
2022/04/04 08:03:23;;;;;;;25.27;14.90;;;5.00;99.90;;;;;;5002928;28;20049;-46
2022/04/04 08:05:49;;;;;;;22.33;13.27;;;5.00;99.90;;;;;;5001377;28;20504;-49
2022/04/04 08:08:15;;;;;;;24.23;14.68;;;5.20;99.90;;;;;;4991021;28;20038;-46
2022/04/04 08:10:43;;;;;;;21.33;14.80;;;5.10;99.90;;;;;;5003166;28;20038;-44
2022/04/04 08:13:09;;;;;;;20.40;13.15;;;5.10;99.90;;;;;;5002374;28;20025;-48
2022/04/04 08:15:35;;;;;;;19.20;13.52;;;5.10;99.90;;;;;;5002887;28;20038;-47
2022/04/04 08:18:02;;;;;;;23.17;14.13;;;5.30;99.90;;;;;;5003071;28;20088;-47
2022/04/04 08:20:28;;;;;;;26.55;13.75;;;5.10;99.90;;;;;;5003225;28;20045;-48
2022/04/04 08:22:54;;;;;;;20.55;13.40;;;5.10;99.90;;;;;;5003287;28;20042;-46
2022/04/04 08:25:19;;;;;;;26.23;14.20;;;5.00;99.90;;;;;;5002175;28;20046;-46
2022/04/04 08:27:46;;;;;;;23.98;14.15;;;5.40;99.90;;;;;;5001640;28;20026;-45
2022/04/04 08:30:14;;;;;;;20.50;12.80;;;5.40;99.90;;;;;;5001732;28;20046;-47
2022/04/04 08:32:40;;;;;;;21.20;13.30;;;5.40;99.90;;;;;;4984735;28;20046;-45
2022/04/04 08:35:08;;;;;;;17.83;13.18;;;5.40;99.90;;;;;;5001320;28;20393;-44
2022/04/04 08:37:35;;;;;;;21.08;12.57;;;5.40;99.90;;;;;;4997756;28;20088;-46
2022/04/04 08:40:03;;;;;;;18.13;10.93;;;5.30;99.90;;;;;;4997321;28;20413;-46
2022/04/04 08:42:29;;;;;;;19.90;10.07;;;5.10;99.90;;;;;;5001755;28;20440;-46
2022/04/04 08:44:59;;;;;;;18.63;10.68;;;5.10;99.90;;;;;;5002213;28;20046;-45
2022/04/04 08:47:29;;;;;;;15.13;8.60;;;5.50;99.90;;;;;;4979267;28;20050;-47
2022/04/04 08:49:56;;;;;;;14.20;9.73;;;5.40;99.90;;;;;;4987747;28;20041;-45
2022/04/04 08:52:22;;;;;;;17.65;9.35;;;5.40;99.90;;;;;;5000504;28;20048;-47
2022/04/04 08:54:49;;;;;;;18.92;9.38;;;5.30;99.90;;;;;;5001199;28;20042;-46
2022/04/04 08:57:15;;;;;;;13.07;7.57;;;5.30;99.90;;;;;;4998112;28;20441;-45
2022/04/04 08:59:41;;;;;;;14.23;6.82;;;5.20;99.90;;;;;;5002058;28;20116;-46
2022/04/04 09:02:07;;;;;;;12.27;6.25;;;5.50;99.90;;;;;;4985498;28;20045;-46
2022/04/04 09:04:33;;;;;;;13.57;5.82;;;5.40;99.90;;;;;;5000977;28;20377;-44
2022/04/04 09:07:05;;;;;;;10.88;6.88;;;5.10;99.90;;;;;;5002192;28;20069;-45
2022/04/04 09:09:42;;;;;;;11.98;6.18;;;5.50;99.90;;;;;;4995036;28;20046;-47
2022/04/04 09:12:14;;;;;;;11.23;6.10;;;5.30;99.90;;;;;;4991290;28;20568;-48
2022/04/04 09:15:06;;;;;;;11.95;6.63;;;5.10;99.90;;;;;;4991066;28;20038;-45
2022/04/04 09:17:33;;;;;;;15.32;6.95;;;5.40;99.90;;;;;;4994573;28;20149;-45
2022/04/04 09:20:10;;;;;;;13.27;7.40;;;5.50;99.90;;;;;;4997668;28;20812;-43
2022/04/04 09:22:53;;;;;;;16.23;7.53;;;5.50;99.90;;;;;;4996594;28;20026;-44
2022/04/04 09:25:31;;;;;;;11.80;6.72;;;5.10;99.90;;;;;;5000289;28;20038;-45
2022/04/04 09:28:17;;;;;;;13.95;7.65;;;5.30;99.90;;;;;;4990459;28;20437;-46
2022/04/04 09:30:45;;;;;;;11.85;6.40;;;5.40;99.90;;;;;;4998194;28;20029;-45
2022/04/04 09:33:14;;;;;;;11.45;6.25;;;5.20;99.90;;;;;;4996613;28;20026;-45
2022/04/04 09:35:46;;;;;;;11.73;6.95;;;5.40;99.90;;;;;;4974554;28;20116;-47
2022/04/04 09:38:13;;;;;;;12.43;7.03;;;5.50;99.90;;;;;;4992659;28;20048;-48
2022/04/04 09:40:39;;;;;;;13.00;6.50;;;5.50;99.90;;;;;;4989748;28;20424;-47
2022/04/04 09:43:06;;;;;;;9.68;6.07;;;5.20;99.90;;;;;;4988569;28;20476;-46
2022/04/04 09:45:31;;;;;;;12.38;6.55;;;5.20;99.90;;;;;;4992046;28;20069;-46
2022/04/04 09:48:04;;;;;;;12.93;6.30;;;5.20;99.90;;;;;;4993301;28;20034;-45
2022/04/04 09:50:41;;;;;;;10.32;6.32;;;5.60;99.90;;;;;;4993277;28;20144;-46
2022/04/04 09:53:23;;;;;;;9.05;6.22;;;5.30;99.90;;;;;;4982964;28;20049;-46
2022/04/04 09:56:00;;;;;;;10.30;6.10;;;5.50;99.90;;;;;;4997365;28;20042;-44
2022/04/04 09:58:31;;;;;;;12.13;6.50;;;5.40;99.90;;;;;;5002044;28;20045;-49
2022/04/04 10:00:58;;;;;;;12.20;5.82;;;5.60;99.90;;;;;;5000779;28;20065;-48
2022/04/04 10:03:25;;;;;;;10.45;5.90;;;5.40;99.90;;;;;;4998338;28;20053;-44
2022/04/04 10:05:57;;;;;;;8.98;5.78;;;5.30;99.90;;;;;;4999160;28;20053;-47
2022/04/04 10:08:24;;;;;;;11.07;6.28;;;5.70;99.90;;;;;;5000259;28;20397;-46
2022/04/04 10:10:53;;;;;;;12.48;6.57;;;5.60;99.90;;;;;;5001165;28;20080;-46
2022/04/04 10:13:20;;;;;;;10.15;6.45;;;5.50;99.90;;;;;;4989031;28;20034;-45
2022/04/04 10:15:47;;;;;;;12.32;6.53;;;5.90;99.90;;;;;;4979432;28;20121;-44
2022/04/04 10:18:15;;;;;;;9.35;6.50;;;5.50;99.90;;;;;;4999423;28;20606;-45
2022/04/04 10:20:41;;;;;;;8.57;5.88;;;5.50;99.90;;;;;;4998854;28;20136;-46
2022/04/04 10:23:15;;;;;;;9.82;6.60;;;5.60;99.90;;;;;;4996580;28;20533;-46
2022/04/04 10:25:41;;;;;;;11.73;6.72;;;5.70;99.90;;;;;;4995933;28;20038;-49
2022/04/04 10:28:07;;;;;;;12.18;6.25;;;5.80;99.90;;;;;;4988827;28;20328;-45
2022/04/04 10:30:40;;;;;;;10.82;6.47;;;5.80;99.90;;;;;;4999008;28;20034;-45
2022/04/04 10:33:26;;;;;;;12.88;6.85;;;5.80;99.90;;;;;;4996834;28;20061;-49
2022/04/04 10:36:22;;;;;;;11.93;6.80;;;6.00;99.90;;;;;;4995784;28;20034;-45
2022/04/04 10:38:56;;;;;;;10.75;6.55;;;6.10;99.90;;;;;;4998315;28;20503;-49
2022/04/04 10:41:25;;;;;;;12.57;6.45;;;6.10;99.90;;;;;;4998768;28;20121;-48
2022/04/04 10:43:53;;;;;;;12.05;6.55;;;5.80;99.90;;;;;;4990610;28;20117;-46
2022/04/04 10:46:24;;;;;;;12.63;6.43;;;6.10;99.90;;;;;;4993253;28;20104;-45
2022/04/04 10:48:59;;;;;;;12.65;6.70;;;6.30;99.90;;;;;;4999660;28;20109;-45
2022/04/04 10:51:30;;;;;;;10.43;6.60;;;6.30;99.90;;;;;;4999706;28;20047;-46
2022/04/04 10:54:08;;;;;;;9.40;5.53;;;6.20;99.90;;;;;;4999020;28;20026;-50
2022/04/04 10:56:41;;;;;;;10.02;5.63;;;6.10;99.90;;;;;;4999115;28;20183;-47
2022/04/04 10:59:16;;;;;;;9.20;5.53;;;6.30;99.90;;;;;;5000407;28;20042;-46
2022/04/04 11:01:49;;;;;;;13.43;6.00;;;6.40;99.90;;;;;;4999848;28;20034;-46
2022/04/04 11:04:36;;;;;;;9.55;5.70;;;6.40;99.90;;;;;;4998961;28;20073;-45
2022/04/04 11:09:56;;;;;;;11.80;5.40;;;6.10;99.90;;;;;;4997333;28;20053;-44
2022/04/04 11:12:24;;;;;;;10.52;6.05;;;6.40;99.90;;;;;;4999008;28;20038;-48
2022/04/04 11:15:07;;;;;;;10.35;5.65;;;6.20;99.90;;;;;;4990559;28;20085;-49
2022/04/04 11:17:36;;;;;;;12.90;6.20;;;6.20;99.90;;;;;;4991250;28;20116;-48
2022/04/04 11:20:13;;;;;;;10.77;6.38;;;6.40;99.90;;;;;;5000469;28;20547;-45
2022/04/04 11:22:51;;;;;;;10.45;5.25;;;6.30;99.90;;;;;;4983716;28;20034;-45
2022/04/04 11:25:21;;;;;;;9.52;5.10;;;6.50;99.90;;;;;;4993469;28;20046;-45
2022/04/04 11:27:48;;;;;;;8.90;5.20;;;6.70;99.90;;;;;;4997730;28;20069;-45
2022/04/04 11:30:20;;;;;;;9.13;5.20;;;6.50;99.90;;;;;;5000577;28;20505;-44
2022/04/04 11:32:49;;;;;;;11.63;5.53;;;6.70;99.90;;;;;;4984642;28;20454;-46
2022/04/04 11:35:22;;;;;;;9.65;5.55;;;6.70;99.90;;;;;;5001429;28;20446;-44
2022/04/04 11:38:07;;;;;;;10.52;5.03;;;6.40;99.90;;;;;;5001024;28;20038;-46
2022/04/04 11:40:38;;;;;;;11.73;5.72;;;6.40;99.90;;;;;;4999826;28;20034;-47
2022/04/04 11:43:14;;;;;;;12.93;5.75;;;6.40;99.90;;;;;;4995622;28;20576;-46
2022/04/04 11:45:43;;;;;;;11.80;5.82;;;6.80;99.90;;;;;;4996987;28;20042;-47
2022/04/04 11:48:11;;;;;;;8.98;5.97;;;6.30;99.90;;;;;;4995318;28;20473;-46
2022/04/04 11:50:38;;;;;;;9.18;5.78;;;6.40;99.90;;;;;;4995061;28;20052;-43
2022/04/04 11:53:08;;;;;;;11.35;5.65;;;6.40;99.90;;;;;;4998640;28;20030;-47
2022/04/04 11:55:36;;;;;;;9.15;5.90;;;6.80;99.90;;;;;;5000990;28;20500;-46
2022/04/04 11:58:12;;;;;;;6.75;4.78;;;6.60;99.90;;;;;;4998667;28;20543;-47
2022/04/04 12:00:53;;;;;;;6.88;4.90;;;7.00;99.90;;;;;;4998383;28;20129;-44
2022/04/04 12:03:19;;;;;;;8.45;5.32;;;6.90;99.90;;;;;;4999714;28;20034;-47
2022/04/04 12:05:48;;;;;;;7.18;4.15;;;6.60;99.90;;;;;;5000165;28;20121;-48
2022/04/04 12:08:15;;;;;;;8.23;4.68;;;7.10;99.90;;;;;;4998970;28;20034;-44
2022/04/04 12:10:42;;;;;;;7.55;4.63;;;7.00;99.90;;;;;;4997596;28;20118;-49
2022/04/04 12:13:13;;;;;;;9.18;5.28;;;6.60;99.90;;;;;;4995660;28;20554;-48
2022/04/04 12:15:44;;;;;;;8.85;4.80;;;7.00;99.90;;;;;;5000208;28;20414;-47
2022/04/04 12:18:10;;;;;;;8.50;4.18;;;6.70;99.90;;;;;;4991210;28;20034;-44
2022/04/04 12:20:44;;;;;;;7.80;4.93;;;7.00;99.90;;;;;;4997311;28;20048;-43
2022/04/04 12:25:59;;;;;;;9.13;3.97;;;6.70;99.90;;;;;;4984611;28;19944;-47
2022/04/04 12:28:27;;;;;;;7.65;3.83;;;6.70;99.90;;;;;;4999951;28;20065;-45
2022/04/04 12:30:54;;;;;;;7.00;4.65;;;7.30;99.90;;;;;;5000909;28;20034;-46
2022/04/04 12:33:21;;;;;;;7.65;3.78;;;6.70;99.90;;;;;;5002283;28;20042;-45
2022/04/04 12:35:48;;;;;;;6.68;4.25;;;7.00;99.90;;;;;;4997159;28;20049;-47
2022/04/04 12:38:24;;;;;;;6.72;4.38;;;7.20;99.90;;;;;;4999859;28;20080;-45
2022/04/04 12:41:09;;;;;;;9.88;4.45;;;7.20;99.90;;;;;;4997467;28;20050;-47
2022/04/04 12:43:36;;;;;;;7.50;4.10;;;6.80;99.90;;;;;;4999452;28;20065;-46
2022/04/04 12:46:04;;;;;;;9.45;4.75;;;6.90;99.90;;;;;;4999134;28;20358;-45
2022/04/04 12:48:41;;;;;;;6.68;4.25;;;7.20;99.90;;;;;;4998089;28;20038;-45
2022/04/04 12:51:07;;;;;;;6.97;4.03;;;7.20;99.90;;;;;;4993659;28;20069;-46
2022/04/04 12:53:47;;;;;;;9.15;4.20;;;7.10;99.90;;;;;;5000478;28;20046;-49
2022/04/04 12:56:13;;;;;;;5.68;3.50;;;7.20;99.90;;;;;;5001849;28;20042;-49